Time;durP1;ratioP1;P1;durP2;ratioP2;P2;SDS_P1;SDS_P2;PMS_P1;PMS_P2;Temp;Humidity;BMP_temperature;BMP_pressure;BME280_temperature;BME280_humidity;BME280_pressure;Samples;Min_cycle;Max_cycle;Signal;HPM_P1;HPM_P2
2022/04/21 00:00:55;;;;;;;16.35;11.43;;;;;;;;;;4936701;29;20416;-87
2022/04/21 00:03:21;;;;;;;20.70;10.90;;;;;;;;;;4937842;29;20043;-86
2022/04/21 00:05:57;;;;;;;18.27;11.13;;;;;;;;;;4923340;29;20082;-88
2022/04/21 00:08:23;;;;;;;15.90;11.18;;;;;;;;;;4935678;29;20051;-87
2022/04/21 00:10:49;;;;;;;15.85;10.82;;;;;;;;;;4938867;29;20058;-86
2022/04/21 00:13:15;;;;;;;14.80;10.90;;;;;;;;;;4920404;29;20059;-87
2022/04/21 00:15:41;;;;;;;13.38;10.30;;;;;;;;;;4935301;29;20067;-86
2022/04/21 00:18:08;;;;;;;16.05;10.77;;;;;;;;;;4884368;29;20038;-85
2022/04/21 00:20:34;;;;;;;14.15;11.32;;;;;;;;;;4919632;29;20036;-88
2022/04/21 00:26:01;;;;;;;15.75;11.95;;;;;;;;;;4934484;29;20191;-90
2022/04/21 00:28:31;;;;;;;14.13;11.35;;;;;;;;;;4933079;29;20122;-89
2022/04/21 00:30:58;;;;;;;16.65;10.95;;;;;;;;;;4934018;29;20046;-82
2022/04/21 00:33:24;;;;;;;17.17;11.20;;;;;;;;;;4936197;29;20035;-88
2022/04/21 00:35:50;;;;;;;18.85;11.30;;;;;;;;;;4891910;29;20044;-86
2022/04/21 00:38:16;;;;;;;15.70;11.25;;;;;;;;;;4907787;29;20051;-89
2022/04/21 00:40:43;;;;;;;15.48;10.43;;;;;;;;;;4888033;29;20108;-86
2022/04/21 00:43:09;;;;;;;18.67;10.98;;;;;;;;;;4938780;29;20047;-89
2022/04/21 00:45:49;;;;;;;16.50;10.88;;;;;;;;;;4936670;29;20053;-85
2022/04/21 00:48:16;;;;;;;14.80;10.68;;;;;;;;;;4925124;29;20051;-88
2022/04/21 00:50:42;;;;;;;17.70;10.88;;;;;;;;;;5012470;23;20059;-88
2022/04/21 00:53:08;;;;;;;17.48;10.48;;;;;;;;;;4898655;29;20040;-89
2022/04/21 00:55:37;;;;;;;15.70;10.82;;;;;;;;;;4903065;29;20099;-89
2022/04/21 00:58:05;;;;;;;14.50;10.77;;;;;;;;;;4888788;29;20158;-86
2022/04/21 01:00:31;;;;;;;18.00;11.07;;;;;;;;;;4872614;29;20037;-88
2022/04/21 01:02:58;;;;;;;16.20;11.50;;;;;;;;;;4841455;29;20076;-90
2022/04/21 01:05:30;;;;;;;17.83;11.85;;;;;;;;;;4892275;29;20096;-91
2022/04/21 01:08:06;;;;;;;13.52;10.55;;;;;;;;;;4894081;29;20059;-91
2022/04/21 01:10:34;;;;;;;16.73;12.27;;;;;;;;;;4891050;29;20051;-90
2022/04/21 01:13:04;;;;;;;17.52;11.77;;;;;;;;;;4892935;29;20095;-91
2022/04/21 01:15:30;;;;;;;17.42;11.85;;;;;;;;;;4892265;29;22028;-90
2022/04/21 01:17:59;;;;;;;21.20;13.10;;;;;;;;;;4898699;29;20057;-91
2022/04/21 01:20:28;;;;;;;17.65;12.95;;;;;;;;;;4894446;29;20044;-91
2022/04/21 01:23:03;;;;;;;15.95;12.25;;;;;;;;;;4892471;29;20127;-88
2022/04/21 01:25:37;;;;;;;19.65;12.27;;;;;;;;;;4872854;29;20523;-88
2022/04/21 01:28:06;;;;;;;18.63;11.73;;;;;;;;;;4891147;29;20071;-88
2022/04/21 01:31:03;;;;;;;17.08;11.00;;;;;;;;;;4891577;29;20516;-87
2022/04/21 01:33:30;;;;;;;13.90;11.02;;;;;;;;;;4874935;29;20119;-87
2022/04/21 01:35:56;;;;;;;12.88;10.02;;;;;;;;;;4874815;29;20048;-88
2022/04/21 01:41:38;;;;;;;16.83;11.02;;;;;;;;;;4889861;29;20064;-87
2022/04/21 01:44:04;;;;;;;14.50;10.73;;;;;;;;;;4876526;29;20525;-89
2022/04/21 01:46:30;;;;;;;12.43;10.20;;;;;;;;;;4856004;29;20040;-87
2022/04/21 01:48:56;;;;;;;18.83;9.85;;;;;;;;;;4902489;29;20072;-88
2022/04/21 01:51:23;;;;;;;14.70;9.80;;;;;;;;;;4901293;29;20056;-86
2022/04/21 01:53:49;;;;;;;14.02;9.65;;;;;;;;;;4898495;28;20049;-85
2022/04/21 01:56:16;;;;;;;13.95;9.43;;;;;;;;;;4901633;29;20099;-85
2022/04/21 01:58:42;;;;;;;15.40;9.75;;;;;;;;;;4898500;29;20136;-82
2022/04/21 02:01:08;;;;;;;12.70;9.60;;;;;;;;;;4861629;29;20088;-87
2022/04/21 02:03:35;;;;;;;16.38;10.30;;;;;;;;;;4894609;29;20041;-86
2022/04/21 02:06:01;;;;;;;16.23;10.80;;;;;;;;;;4890841;29;20052;-88
2022/04/21 02:08:27;;;;;;;15.68;10.80;;;;;;;;;;4897161;29;20040;-88
2022/04/21 02:10:53;;;;;;;12.75;9.07;;;;;;;;;;4899534;29;20041;-88
2022/04/21 02:13:20;;;;;;;15.32;10.43;;;;;;;;;;4895801;29;20561;-87
2022/04/21 02:15:46;;;;;;;13.20;10.18;;;;;;;;;;4893717;29;20049;-87
2022/04/21 02:18:13;;;;;;;12.63;8.93;;;;;;;;;;4895178;29;20060;-84
2022/04/21 02:20:39;;;;;;;14.52;10.32;;;;;;;;;;4872095;29;20119;-87
2022/04/21 02:23:05;;;;;;;19.98;9.52;;;;;;;;;;4888174;29;20541;-83
2022/04/21 02:25:31;;;;;;;13.07;8.93;;;;;;;;;;4888081;29;20136;-85
2022/04/21 02:27:58;;;;;;;15.13;9.68;;;;;;;;;;4890803;29;20044;-86
2022/04/21 02:30:24;;;;;;;13.48;9.43;;;;;;;;;;4891935;29;20040;-87
2022/04/21 02:32:50;;;;;;;11.98;8.63;;;;;;;;;;4862213;29;20085;-87
2022/04/21 02:35:16;;;;;;;12.30;8.55;;;;;;;;;;4892489;29;20052;-83
2022/04/21 02:37:46;;;;;;;9.80;8.65;;;;;;;;;;4860004;29;20137;-85
2022/04/21 02:40:13;;;;;;;13.60;9.07;;;;;;;;;;4877725;29;20058;-87
2022/04/21 02:42:39;;;;;;;16.08;8.43;;;;;;;;;;4895001;29;20056;-87
2022/04/21 02:45:12;;;;;;;16.90;9.05;;;;;;;;;;4892094;29;20619;-84
2022/04/21 02:47:43;;;;;;;12.07;8.77;;;;;;;;;;4877042;29;20049;-86
2022/04/21 02:50:31;;;;;;;14.45;8.38;;;;;;;;;;4890274;29;20043;-85
2022/04/21 02:52:58;;;;;;;14.00;9.68;;;;;;;;;;4886867;29;20758;-87
2022/04/21 02:58:09;;;;;;;12.50;8.85;;;;;;;;;;4888400;29;20087;-85
2022/04/21 03:00:35;;;;;;;13.82;8.73;;;;;;;;;;4889176;29;20556;-88
2022/04/21 03:03:01;;;;;;;12.07;9.27;;;;;;;;;;4870196;29;20088;-87
2022/04/21 03:05:28;;;;;;;17.05;8.63;;;;;;;;;;4886921;29;20149;-87
2022/04/21 03:07:54;;;;;;;16.98;10.00;;;;;;;;;;4888577;29;20037;-89
2022/04/21 03:10:20;;;;;;;13.95;9.68;;;;;;;;;;4889713;29;20052;-87
2022/04/21 03:12:47;;;;;;;14.35;10.20;;;;;;;;;;4871556;29;20139;-84
2022/04/21 03:15:13;;;;;;;11.07;8.60;;;;;;;;;;4888398;29;20052;-89
2022/04/21 03:17:40;;;;;;;14.75;9.07;;;;;;;;;;4889810;29;20041;-86
2022/04/21 03:25:32;;;;;;;16.90;9.85;;;;;;;;;;4922380;28;20040;-88
2022/04/21 03:27:58;;;;;;;14.27;9.23;;;;;;;;;;4877519;29;20127;-84
2022/04/21 03:30:24;;;;;;;11.63;9.23;;;;;;;;;;4885429;29;20164;-87
2022/04/21 03:32:56;;;;;;;13.02;9.65;;;;;;;;;;4903474;29;20540;-88
2022/04/21 03:35:23;;;;;;;15.38;10.38;;;;;;;;;;4903858;29;20147;-88
2022/04/21 03:37:54;;;;;;;17.85;10.20;;;;;;;;;;4903768;29;20050;-86
2022/04/21 03:40:21;;;;;;;14.88;10.60;;;;;;;;;;4888092;29;20047;-88
2022/04/21 03:42:47;;;;;;;16.13;9.38;;;;;;;;;;4904288;29;20055;-85
2022/04/21 03:45:13;;;;;;;15.02;10.75;;;;;;;;;;4921192;29;20043;-87
2022/04/21 03:47:40;;;;;;;13.52;9.95;;;;;;;;;;4891412;29;20365;-86
2022/04/21 03:50:06;;;;;;;13.10;10.07;;;;;;;;;;4906145;29;20052;-85
2022/04/21 03:52:32;;;;;;;13.48;10.88;;;;;;;;;;4904970;29;20755;-83
2022/04/21 03:54:58;;;;;;;14.32;10.07;;;;;;;;;;4921260;29;20044;-85
2022/04/21 03:57:27;;;;;;;12.98;9.80;;;;;;;;;;4904391;29;20079;-85
2022/04/21 03:59:53;;;;;;;14.20;9.90;;;;;;;;;;4907785;29;20055;-83
2022/04/21 04:02:19;;;;;;;12.80;9.40;;;;;;;;;;4924866;29;20055;-85
2022/04/21 04:04:45;;;;;;;14.43;9.40;;;;;;;;;;4904284;29;20105;-83
2022/04/21 04:12:44;;;;;;;12.63;9.88;;;;;;;;;;4921316;29;20524;-87
2022/04/21 04:15:13;;;;;;;12.63;9.80;;;;;;;;;;4889569;29;20107;-86
2022/04/21 04:17:39;;;;;;;19.08;10.07;;;;;;;;;;4910153;29;20043;-84
2022/04/21 04:20:06;;;;;;;14.35;9.90;;;;;;;;;;4921208;29;20546;-82
2022/04/21 04:22:42;;;;;;;15.45;9.30;;;;;;;;;;4920525;29;20181;-83
2022/04/21 04:25:09;;;;;;;10.70;8.77;;;;;;;;;;4890992;29;20059;-83
2022/04/21 04:27:36;;;;;;;16.75;10.50;;;;;;;;;;4927118;29;20048;-86
2022/04/21 04:30:03;;;;;;;12.43;9.80;;;;;;;;;;4926084;29;20054;-87
2022/04/21 04:32:30;;;;;;;14.20;9.90;;;;;;;;;;4921220;29;20047;-89
2022/04/21 04:34:56;;;;;;;14.88;9.40;;;;;;;;;;4924715;29;20058;-88
2022/04/21 04:37:22;;;;;;;11.25;8.85;;;;;;;;;;4903017;29;20059;-87
2022/04/21 04:39:48;;;;;;;11.30;9.02;;;;;;;;;;4927256;29;20048;-88
2022/04/21 04:42:17;;;;;;;14.15;10.93;;;;;;;;;;4902453;29;20048;-87
2022/04/21 04:44:46;;;;;;;11.63;8.85;;;;;;;;;;4927020;29;20059;-88
2022/04/21 04:47:32;;;;;;;12.80;8.88;;;;;;;;;;4906177;29;20512;-89
2022/04/21 04:49:58;;;;;;;11.18;9.10;;;;;;;;;;4930296;29;20666;-90
2022/04/21 04:52:28;;;;;;;12.70;8.95;;;;;;;;;;4894737;29;20466;-88
2022/04/21 04:54:54;;;;;;;16.13;9.23;;;;;;;;;;4895726;29;20496;-86
2022/04/21 04:57:23;;;;;;;12.65;9.73;;;;;;;;;;4925706;29;20043;-83
2022/04/21 04:59:49;;;;;;;13.18;9.10;;;;;;;;;;4923428;29;20103;-81
2022/04/21 05:02:17;;;;;;;11.98;8.98;;;;;;;;;;4905256;29;20055;-84
2022/04/21 05:04:44;;;;;;;12.82;8.73;;;;;;;;;;4924778;29;20501;-83
2022/04/21 05:07:10;;;;;;;15.65;9.55;;;;;;;;;;4910236;29;20051;-80
2022/04/21 05:09:36;;;;;;;11.27;8.63;;;;;;;;;;4909969;29;20432;-84
2022/04/21 05:12:02;;;;;;;13.77;9.07;;;;;;;;;;4892569;29;20088;-85
2022/04/21 05:14:29;;;;;;;15.30;8.50;;;;;;;;;;4913250;29;20040;-87
2022/04/21 05:16:55;;;;;;;11.30;8.55;;;;;;;;;;4925854;29;20499;-83
2022/04/21 05:19:21;;;;;;;9.02;8.05;;;;;;;;;;4925673;29;20387;-83
2022/04/21 05:21:49;;;;;;;11.85;8.13;;;;;;;;;;4924773;29;20056;-81
2022/04/21 05:24:15;;;;;;;17.92;8.70;;;;;;;;;;4908520;29;20048;-82
2022/04/21 05:26:42;;;;;;;11.75;8.30;;;;;;;;;;4906936;29;20035;-83
2022/04/21 05:31:56;;;;;;;12.05;7.97;;;;;;;;;;4925207;29;20047;-83
2022/04/21 05:34:25;;;;;;;12.23;8.00;;;;;;;;;;4924846;29;20051;-83
2022/04/21 05:36:52;;;;;;;10.80;8.45;;;;;;;;;;4912722;29;20107;-83
2022/04/21 05:39:18;;;;;;;13.93;8.68;;;;;;;;;;4927069;29;20180;-84
2022/04/21 05:41:45;;;;;;;12.27;7.43;;;;;;;;;;4925408;29;20056;-84
2022/04/21 05:44:11;;;;;;;10.80;7.85;;;;;;;;;;4923883;29;20054;-84
2022/04/21 05:46:38;;;;;;;11.23;7.65;;;;;;;;;;4924692;29;20067;-83
2022/04/21 05:49:04;;;;;;;12.55;9.38;;;;;;;;;;4924171;29;20031;-83
2022/04/21 05:51:30;;;;;;;16.95;8.70;;;;;;;;;;4937178;29;20036;-83
2022/04/21 05:54:02;;;;;;;11.68;7.80;;;;;;;;;;4975806;23;20066;-83
2022/04/21 05:56:28;;;;;;;11.82;7.22;;;;;;;;;;4896170;29;20120;-84
2022/04/21 05:59:10;;;;;;;11.75;7.40;;;;;;;;;;4893980;29;20086;-85
2022/04/21 06:01:36;;;;;;;10.05;7.45;;;;;;;;;;4893300;29;20050;-84
2022/04/21 06:04:03;;;;;;;11.93;7.38;;;;;;;;;;4887038;29;20040;-82
2022/04/21 06:06:29;;;;;;;11.48;7.93;;;;;;;;;;4887383;29;20041;-84
2022/04/21 06:08:55;;;;;;;11.02;8.00;;;;;;;;;;4876926;29;20072;-83
2022/04/21 06:11:22;;;;;;;9.35;7.60;;;;;;;;;;4875489;29;20052;-82
2022/04/21 06:13:48;;;;;;;11.38;6.93;;;;;;;;;;4861155;29;20040;-83
2022/04/21 06:16:14;;;;;;;15.05;7.82;;;;;;;;;;4887761;29;20040;-83
2022/04/21 06:18:40;;;;;;;12.43;7.57;;;;;;;;;;4909967;29;20418;-83
2022/04/21 06:21:22;;;;;;;11.90;7.80;;;;;;;;;;4907931;29;20481;-82
2022/04/21 06:23:48;;;;;;;21.65;8.50;;;;;;;;;;4892148;29;20048;-83
2022/04/21 06:26:25;;;;;;;9.27;7.30;;;;;;;;;;4911751;29;20127;-82
2022/04/21 06:28:51;;;;;;;13.10;7.20;;;;;;;;;;4894008;29;20058;-83
2022/04/21 06:31:17;;;;;;;13.32;7.75;;;;;;;;;;4911823;29;20105;-84
2022/04/21 06:33:55;;;;;;;11.00;7.15;;;;;;;;;;4912536;29;20042;-83
2022/04/21 06:36:37;;;;;;;10.35;7.15;;;;;;;;;;4897040;29;20564;-81
2022/04/21 06:39:03;;;;;;;8.30;6.55;;;;;;;;;;4908982;29;20408;-84
2022/04/21 06:41:29;;;;;;;10.93;6.72;;;;;;;;;;4911299;29;20458;-82
2022/04/21 06:49:25;;;;;;;7.90;6.20;;;;;;;;;;4935439;23;20151;-80
2022/04/21 06:51:51;;;;;;;6.75;5.70;;;;;;;;;;4876612;29;20384;-82
2022/04/21 06:54:17;;;;;;;7.55;5.80;;;;;;;;;;4925111;29;20098;-83
2022/04/21 06:56:48;;;;;;;8.43;5.90;;;;;;;;;;4892327;29;20047;-83
2022/04/21 06:59:15;;;;;;;13.68;6.22;;;;;;;;;;4905886;29;20055;-82
2022/04/21 07:01:41;;;;;;;9.45;6.53;;;;;;;;;;4925901;29;20054;-82
2022/04/21 07:04:07;;;;;;;8.00;5.50;;;;;;;;;;4927613;29;20044;-83
2022/04/21 07:06:33;;;;;;;8.88;5.35;;;;;;;;;;4924500;29;20059;-82
2022/04/21 07:09:00;;;;;;;8.45;6.10;;;;;;;;;;4923459;29;20078;-83
2022/04/21 07:11:26;;;;;;;8.02;5.57;;;;;;;;;;4923168;29;20063;-82
2022/04/21 07:13:52;;;;;;;9.10;5.75;;;;;;;;;;4922212;29;20491;-83
2022/04/21 07:16:19;;;;;;;6.43;5.60;;;;;;;;;;4911036;29;21242;-81
2022/04/21 07:18:45;;;;;;;10.35;5.65;;;;;;;;;;4921543;29;20055;-82
2022/04/21 07:21:11;;;;;;;6.72;5.60;;;;;;;;;;4924817;29;20044;-83
2022/04/21 07:23:39;;;;;;;8.55;5.07;;;;;;;;;;4923653;29;20099;-82
2022/04/21 07:26:05;;;;;;;6.30;4.97;;;;;;;;;;4924644;29;20103;-82
2022/04/21 07:28:34;;;;;;;8.70;5.18;;;;;;;;;;4923938;29;20035;-83
2022/04/21 07:31:04;;;;;;;5.88;4.03;;;;;;;;;;4937959;23;20523;-83
2022/04/21 07:33:30;;;;;;;5.18;4.60;;;;;;;;;;4910717;29;20392;-83
2022/04/21 07:35:56;;;;;;;5.07;4.30;;;;;;;;;;4891877;29;20039;-84
2022/04/21 07:38:22;;;;;;;3.97;3.58;;;;;;;;;;4922815;29;20031;-83
2022/04/21 07:40:54;;;;;;;5.20;3.38;;;;;;;;;;4921310;29;20134;-84
2022/04/21 07:43:20;;;;;;;3.80;3.40;;;;;;;;;;4917524;29;20062;-85
2022/04/21 07:45:49;;;;;;;4.82;3.63;;;;;;;;;;4896521;29;20571;-83
2022/04/21 07:49:44;;;;;;;5.18;3.05;;;;;;;;;;4915426;29;20050;-85
2022/04/21 07:51:13;;;;;;;4.53;2.90;;;;;;;;;;4915101;29;20047;-82
2022/04/21 07:53:39;;;;;;;4.40;3.10;;;;;;;;;;4917644;29;20219;-82
2022/04/21 07:56:06;;;;;;;3.63;3.28;;;;;;;;;;4918541;29;20070;-85
2022/04/21 07:58:32;;;;;;;4.68;3.03;;;;;;;;;;4900307;29;20055;-83
2022/04/21 08:00:58;;;;;;;5.95;2.90;;;;;;;;;;4884324;29;20062;-82
2022/04/21 08:03:26;;;;;;;5.18;2.95;;;;;;;;;;4883772;29;20249;-84
2022/04/21 08:05:52;;;;;;;4.07;2.95;;;;;;;;;;4904000;29;20523;-81
2022/04/21 08:08:19;;;;;;;3.40;2.95;;;;;;;;;;4919107;29;20048;-83
2022/04/21 08:10:45;;;;;;;3.40;3.00;;;;;;;;;;4903031;29;20059;-83
2022/04/21 08:13:16;;;;;;;9.75;4.00;;;;;;;;;;4925258;29;20110;-83
2022/04/21 08:15:46;;;;;;;6.22;3.40;;;;;;;;;;4923935;29;20050;-82
2022/04/21 08:18:13;;;;;;;6.05;2.70;;;;;;;;;;4884787;29;21776;-82
2022/04/21 08:20:42;;;;;;;3.67;3.20;;;;;;;;;;4889752;29;20070;-83
2022/04/21 08:23:11;;;;;;;3.30;2.65;;;;;;;;;;4899752;29;20412;-83
2022/04/21 08:33:55;;;;;;;4.03;2.75;;;;;;;;;;4921039;29;20075;-80
2022/04/21 08:36:21;;;;;;;4.80;2.65;;;;;;;;;;4921946;29;20052;-81
2022/04/21 08:38:47;;;;;;;3.83;3.15;;;;;;;;;;4923664;29;20078;-81
2022/04/21 08:41:17;;;;;;;5.05;2.90;;;;;;;;;;4918113;29;20507;-80
2022/04/21 08:43:44;;;;;;;5.53;3.25;;;;;;;;;;4921125;29;20039;-82
2022/04/21 08:46:13;;;;;;;6.47;2.90;;;;;;;;;;4919649;29;20047;-84
2022/04/21 08:48:39;;;;;;;3.38;2.85;;;;;;;;;;4899514;29;20043;-82
2022/04/21 08:51:09;;;;;;;5.75;3.25;;;;;;;;;;4919466;29;20441;-83
2022/04/21 08:53:35;;;;;;;6.57;2.92;;;;;;;;;;4932534;23;20063;-85
2022/04/21 08:56:01;;;;;;;4.38;3.33;;;;;;;;;;4917131;29;20247;-83
2022/04/21 08:58:27;;;;;;;8.80;3.10;;;;;;;;;;4905832;29;20048;-81
2022/04/21 09:03:35;;;;;;;5.25;3.65;;;;;;;;;;5171244;23;20516;-81
2022/04/21 09:06:01;;;;;;;5.95;3.30;;;;;;;;;;4887785;29;20051;-81
2022/04/21 09:08:34;;;;;;;7.90;3.05;;;;;;;;;;4886447;29;20047;-85
2022/04/21 09:11:29;;;;;;;3.75;3.20;;;;;;;;;;4939063;29;20122;-81
2022/04/21 09:14:16;;;;;;;6.53;3.35;;;;;;;;;;4911694;29;20587;-82
2022/04/21 09:16:42;;;;;;;5.47;3.13;;;;;;;;;;4942289;29;20055;-86
2022/04/21 09:19:08;;;;;;;7.35;3.20;;;;;;;;;;4935950;29;20071;-84
2022/04/21 09:21:38;;;;;;;15.13;10.15;;;;;;;;;;4940883;29;20039;-85
2022/04/21 09:24:19;;;;;;;6.47;4.60;;;;;;;;;;4921400;29;20047;-85
2022/04/21 09:26:56;;;;;;;17.80;10.18;;;;;;;;;;4945688;29;20078;-86
2022/04/21 09:29:30;;;;;;;6.38;3.72;;;;;;;;;;4937464;29;20071;-85
2022/04/21 09:32:00;;;;;;;4.40;3.17;;;;;;;;;;4941796;29;20078;-84
2022/04/21 09:34:26;;;;;;;4.32;3.40;;;;;;;;;;4945620;29;20139;-87
2022/04/21 09:36:59;;;;;;;5.78;3.40;;;;;;;;;;4926770;29;20047;-85
2022/04/21 09:39:27;;;;;;;5.82;3.40;;;;;;;;;;4941313;29;20051;-83
2022/04/21 09:41:56;;;;;;;4.93;3.10;;;;;;;;;;4940864;29;20120;-83
2022/04/21 09:47:40;;;;;;;13.23;3.50;;;;;;;;;;4924410;29;20043;-82
2022/04/21 09:50:13;;;;;;;4.35;3.30;;;;;;;;;;4925354;29;20075;-84
2022/04/21 09:52:47;;;;;;;9.38;3.50;;;;;;;;;;4941026;29;20758;-83
2022/04/21 09:55:26;;;;;;;4.47;3.03;;;;;;;;;;4935202;29;20270;-86
2022/04/21 09:58:03;;;;;;;13.57;2.97;;;;;;;;;;4942048;29;20143;-82
2022/04/21 10:00:42;;;;;;;5.47;3.22;;;;;;;;;;4941462;29;20098;-84
2022/04/21 10:03:08;;;;;;;3.80;2.97;;;;;;;;;;4927820;29;20419;-83
2022/04/21 10:05:47;;;;;;;5.43;3.13;;;;;;;;;;4919535;29;20080;-83
2022/04/21 10:08:13;;;;;;;5.10;2.60;;;;;;;;;;4923949;29;20063;-83
2022/04/21 10:10:39;;;;;;;8.70;3.30;;;;;;;;;;4940879;29;20059;-85
2022/04/21 10:13:06;;;;;;;5.88;2.88;;;;;;;;;;4940455;29;20380;-82
2022/04/21 10:15:47;;;;;;;7.22;3.05;;;;;;;;;;4934400;28;20142;-85
2022/04/21 10:18:15;;;;;;;4.03;3.08;;;;;;;;;;4900414;29;20139;-85
2022/04/21 10:23:57;;;;;;;5.72;2.63;;;;;;;;;;4911838;23;20071;-84
2022/04/21 10:29:52;;;;;;;3.17;2.88;;;;;;;;;;4908237;29;20403;-81
2022/04/21 10:32:18;;;;;;;4.38;2.67;;;;;;;;;;4907869;29;20083;-85
2022/04/21 10:34:46;;;;;;;3.60;3.00;;;;;;;;;;4918255;29;20495;-82
2022/04/21 10:37:12;;;;;;;5.35;3.30;;;;;;;;;;4906925;29;20048;-82
2022/04/21 10:39:39;;;;;;;12.38;5.75;;;;;;;;;;4924267;29;20044;-82
2022/04/21 10:42:06;;;;;;;5.25;3.10;;;;;;;;;;4928532;29;20059;-84
2022/04/21 10:44:40;;;;;;;7.15;3.33;;;;;;;;;;4924270;29;20052;-84
2022/04/21 10:47:28;;;;;;;4.43;2.90;;;;;;;;;;4911179;29;20051;-85
2022/04/21 10:50:00;;;;;;;3.78;3.10;;;;;;;;;;4885383;29;20080;-84
2022/04/21 10:57:48;;;;;;;7.07;3.45;;;;;;;;;;4920817;29;20119;-84
2022/04/21 11:00:34;;;;;;;3.72;3.28;;;;;;;;;;4904564;29;20067;-86
2022/04/21 11:03:08;;;;;;;5.05;3.35;;;;;;;;;;4917586;29;20416;-86
2022/04/21 11:05:34;;;;;;;3.75;3.40;;;;;;;;;;4881165;29;20040;-81
2022/04/21 11:08:01;;;;;;;4.63;3.42;;;;;;;;;;4911885;29;20060;-85
2022/04/21 11:10:39;;;;;;;8.05;3.55;;;;;;;;;;4912796;29;20704;-86
2022/04/21 11:13:05;;;;;;;8.85;3.42;;;;;;;;;;4911643;29;20121;-86
2022/04/21 11:15:36;;;;;;;4.35;2.80;;;;;;;;;;4876685;29;20115;-86
2022/04/21 11:18:16;;;;;;;5.68;3.20;;;;;;;;;;4908057;29;20119;-84
2022/04/21 11:20:43;;;;;;;8.20;3.55;;;;;;;;;;4893208;29;20489;-86
2022/04/21 11:23:10;;;;;;;4.35;3.50;;;;;;;;;;4912586;29;20107;-85
2022/04/21 11:25:36;;;;;;;7.35;3.45;;;;;;;;;;4907496;29;20052;-84
2022/04/21 11:28:04;;;;;;;4.30;3.15;;;;;;;;;;4909130;29;20072;-82
2022/04/21 11:30:32;;;;;;;5.68;3.35;;;;;;;;;;4888905;29;20063;-84
2022/04/21 11:32:58;;;;;;;8.52;3.33;;;;;;;;;;4910075;29;20063;-83
2022/04/21 11:35:25;;;;;;;5.32;3.25;;;;;;;;;;4879588;29;20044;-81
2022/04/21 11:37:58;;;;;;;4.57;3.88;;;;;;;;;;4890417;29;20091;-81
2022/04/21 11:40:44;;;;;;;4.35;3.33;;;;;;;;;;4910989;29;20036;-82
2022/04/21 11:43:18;;;;;;;5.10;3.10;;;;;;;;;;4905997;29;20060;-82
2022/04/21 11:46:03;;;;;;;2.65;2.45;;;;;;;;;;4910472;29;20040;-82
2022/04/21 11:48:30;;;;;;;4.40;3.20;;;;;;;;;;4870501;29;20052;-82
2022/04/21 11:50:57;;;;;;;4.82;3.35;;;;;;;;;;4858181;29;20053;-81
2022/04/21 11:53:23;;;;;;;5.13;3.40;;;;;;;;;;4906238;29;20044;-82
2022/04/21 11:55:50;;;;;;;4.60;3.30;;;;;;;;;;4916567;29;22278;-84
2022/04/21 11:58:35;;;;;;;5.32;3.33;;;;;;;;;;4891840;29;20420;-83
2022/04/21 12:06:57;;;;;;;7.72;3.45;;;;;;;;;;4912068;29;20040;-81
2022/04/21 12:09:25;;;;;;;4.38;3.03;;;;;;;;;;4910547;29;20496;-83
2022/04/21 12:11:54;;;;;;;5.78;3.15;;;;;;;;;;4883524;29;20055;-81
2022/04/21 12:14:20;;;;;;;5.72;3.60;;;;;;;;;;4914466;29;20079;-84
2022/04/21 12:16:54;;;;;;;5.85;3.65;;;;;;;;;;4895861;29;20070;-84
2022/04/21 12:19:38;;;;;;;5.88;3.58;;;;;;;;;;4916676;29;20036;-91
2022/04/21 12:22:08;;;;;;;6.32;3.25;;;;;;;;;;4892868;29;20060;-92
2022/04/21 12:24:36;;;;;;;5.80;3.67;;;;;;;;;;4877714;29;20449;-89
2022/04/21 12:27:04;;;;;;;4.95;3.70;;;;;;;;;;4880871;29;20040;-87
2022/04/21 12:29:31;;;;;;;5.50;3.47;;;;;;;;;;4915048;29;20407;-90
2022/04/21 12:32:00;;;;;;;4.38;3.00;;;;;;;;;;4913920;29;20477;-90
2022/04/21 12:34:45;;;;;;;4.85;3.33;;;;;;;;;;4916397;29;20051;-90
2022/04/21 12:37:11;;;;;;;6.72;3.03;;;;;;;;;;4897809;29;20048;-89
2022/04/21 12:39:37;;;;;;;4.57;2.92;;;;;;;;;;4913537;29;20054;-91
2022/04/21 12:42:04;;;;;;;4.80;3.20;;;;;;;;;;4898925;29;20044;-87
2022/04/21 12:44:31;;;;;;;8.13;3.60;;;;;;;;;;4898926;29;20124;-90
2022/04/21 12:47:17;;;;;;;7.82;3.97;;;;;;;;;;4893388;29;20044;-89
2022/04/21 12:49:50;;;;;;;4.50;3.92;;;;;;;;;;4912087;29;20508;-84
2022/04/21 12:52:27;;;;;;;7.38;3.92;;;;;;;;;;4915485;29;20048;-81
2022/04/21 12:54:57;;;;;;;6.82;4.32;;;;;;;;;;4904659;29;20049;-83
2022/04/21 12:57:24;;;;;;;6.97;3.83;;;;;;;;;;4910435;29;20036;-86
2022/04/21 12:59:57;;;;;;;9.73;3.50;;;;;;;;;;4891482;29;20407;-90
2022/04/21 13:02:23;;;;;;;7.72;4.05;;;;;;;;;;4893441;29;20094;-83
2022/04/21 13:04:57;;;;;;;9.77;3.70;;;;;;;;;;4910660;29;20785;-89
2022/04/21 13:07:24;;;;;;;6.05;3.42;;;;;;;;;;4913032;29;20059;-81
2022/04/21 13:09:50;;;;;;;5.05;3.80;;;;;;;;;;4894252;29;20048;-78
2022/04/21 13:12:21;;;;;;;4.78;3.42;;;;;;;;;;4915863;29;20043;-83
2022/04/21 13:14:48;;;;;;;6.50;3.63;;;;;;;;;;4902396;29;20195;-88
2022/04/21 13:17:14;;;;;;;6.90;4.03;;;;;;;;;;4881635;29;20063;-82
2022/04/21 13:19:40;;;;;;;5.15;3.65;;;;;;;;;;4865454;29;20730;-79
2022/04/21 13:22:06;;;;;;;7.55;3.75;;;;;;;;;;4919836;29;20453;-77
2022/04/21 13:24:32;;;;;;;4.38;3.97;;;;;;;;;;4916542;29;20067;-83
2022/04/21 13:26:59;;;;;;;5.82;3.88;;;;;;;;;;4914925;29;20127;-80
2022/04/21 13:29:29;;;;;;;5.32;3.70;;;;;;;;;;4899333;29;20480;-80
2022/04/21 13:34:42;;;;;;;5.70;3.88;;;;;;;;;;4917380;29;20054;-85
2022/04/21 13:37:20;;;;;;;6.80;4.15;;;;;;;;;;4883515;29;20060;-82
2022/04/21 13:39:48;;;;;;;7.85;4.10;;;;;;;;;;4884613;29;20115;-81
2022/04/21 13:42:17;;;;;;;9.73;4.22;;;;;;;;;;4903378;29;20400;-81
2022/04/21 13:44:52;;;;;;;6.50;3.90;;;;;;;;;;4917715;29;20139;-90
2022/04/21 13:47:24;;;;;;;5.43;4.68;;;;;;;;;;4917931;29;20075;-88
2022/04/21 13:49:50;;;;;;;8.38;4.97;;;;;;;;;;4901795;29;20048;-82
2022/04/21 13:52:17;;;;;;;9.30;5.57;;;;;;;;;;4918589;29;20119;-92
2022/04/21 13:54:43;;;;;;;9.15;4.90;;;;;;;;;;4898946;29;20049;-83
2022/04/21 13:57:09;;;;;;;6.15;5.45;;;;;;;;;;4916595;29;20111;-80
2022/04/21 13:59:35;;;;;;;6.60;5.57;;;;;;;;;;4917151;29;20056;-84
2022/04/21 14:02:01;;;;;;;8.07;6.10;;;;;;;;;;4915123;29;20775;-87
2022/04/21 14:04:27;;;;;;;8.13;5.63;;;;;;;;;;4900151;29;20071;-81
2022/04/21 14:06:55;;;;;;;10.88;6.13;;;;;;;;;;4920326;29;20055;-80
2022/04/21 14:09:25;;;;;;;10.98;7.18;;;;;;;;;;4879951;29;20687;-80
2022/04/21 14:11:51;;;;;;;8.35;6.28;;;;;;;;;;4889122;29;20458;-81
2022/04/21 14:14:17;;;;;;;8.70;6.05;;;;;;;;;;4909431;29;20596;-91
2022/04/21 14:16:43;;;;;;;8.38;6.80;;;;;;;;;;4888908;29;20501;-81
2022/04/21 14:19:09;;;;;;;10.48;7.13;;;;;;;;;;4875086;29;20098;-80
2022/04/21 14:21:36;;;;;;;9.52;6.32;;;;;;;;;;4908172;29;20103;-79
2022/04/21 14:24:02;;;;;;;10.25;6.80;;;;;;;;;;4906793;29;20142;-79
2022/04/21 14:26:29;;;;;;;11.88;6.72;;;;;;;;;;4906076;29;20048;-79
2022/04/21 14:28:55;;;;;;;7.55;6.20;;;;;;;;;;4905244;29;20099;-80
2022/04/21 14:31:21;;;;;;;10.40;6.70;;;;;;;;;;4908593;29;20052;-82
2022/04/21 14:33:53;;;;;;;11.30;8.13;;;;;;;;;;4906400;29;20127;-80
2022/04/21 14:36:19;;;;;;;7.68;6.78;;;;;;;;;;4889601;29;20577;-80
2022/04/21 14:44:16;;;;;;;11.57;7.28;;;;;;;;;;4892670;29;20897;-81
2022/04/21 14:46:48;;;;;;;8.40;6.10;;;;;;;;;;4888351;29;20063;-84
2022/04/21 14:49:16;;;;;;;7.97;6.60;;;;;;;;;;4883512;29;20063;-80
2022/04/21 14:51:42;;;;;;;11.02;6.45;;;;;;;;;;4904154;29;20415;-79
2022/04/21 14:54:09;;;;;;;11.15;6.45;;;;;;;;;;4908486;29;20610;-83
2022/04/21 14:56:40;;;;;;;9.88;7.10;;;;;;;;;;4909429;29;20043;-80
2022/04/21 14:59:06;;;;;;;12.15;8.57;;;;;;;;;;4906083;29;20513;-81
2022/04/21 15:01:33;;;;;;;9.05;8.05;;;;;;;;;;4909253;29;20091;-91
2022/04/21 15:03:59;;;;;;;9.15;7.97;;;;;;;;;;4911711;29;20641;-87
2022/04/21 15:06:25;;;;;;;8.98;7.90;;;;;;;;;;4915227;29;20047;-78
2022/04/21 15:08:51;;;;;;;13.15;8.35;;;;;;;;;;4914930;29;20392;-89
2022/04/21 15:11:18;;;;;;;18.10;8.15;;;;;;;;;;4916077;29;20048;-81
2022/04/21 15:13:44;;;;;;;9.40;8.40;;;;;;;;;;4918978;29;20032;-94
2022/04/21 15:16:11;;;;;;;11.48;8.43;;;;;;;;;;4914586;29;20052;-92
2022/04/21 15:18:37;;;;;;;10.95;8.13;;;;;;;;;;4918083;29;20126;-88
2022/04/21 15:21:07;;;;;;;8.82;7.93;;;;;;;;;;4917332;29;20043;-87
2022/04/21 15:23:33;;;;;;;9.10;7.45;;;;;;;;;;4914402;29;20098;-94
2022/04/21 15:25:59;;;;;;;7.88;6.95;;;;;;;;;;4893889;29;20048;-86
2022/04/21 15:28:26;;;;;;;11.68;7.05;;;;;;;;;;4918008;29;20059;-89
2022/04/21 15:30:52;;;;;;;10.88;7.55;;;;;;;;;;4916208;29;20048;-87
2022/04/21 15:33:19;;;;;;;9.27;6.82;;;;;;;;;;4918133;29;20040;-88
2022/04/21 15:35:45;;;;;;;17.80;7.47;;;;;;;;;;4920738;29;20055;-92
2022/04/21 15:38:13;;;;;;;8.23;6.68;;;;;;;;;;4919149;29;20063;-91
2022/04/21 15:40:39;;;;;;;6.75;6.05;;;;;;;;;;4914599;29;20112;-86
2022/04/21 15:43:07;;;;;;;9.50;7.18;;;;;;;;;;4914698;29;20040;-85
2022/04/21 15:45:34;;;;;;;8.98;6.95;;;;;;;;;;4919968;29;20056;-91
2022/04/21 15:48:00;;;;;;;10.90;7.18;;;;;;;;;;4898384;29;20048;-85
2022/04/21 15:50:26;;;;;;;10.60;6.63;;;;;;;;;;4901012;29;20531;-94